Time;durP1;ratioP1;P1;durP2;ratioP2;P2;SDS_P1;SDS_P2;PMS_P1;PMS_P2;Temp;Humidity;BMP_temperature;BMP_pressure;BME280_temperature;BME280_humidity;BME280_pressure;Samples;Min_cycle;Max_cycle;Signal;HPM_P1;HPM_P2
2022/01/04 00:02:08;;;;;;;38.40;12.15;;;7.90;99.90;;;;;;4823746;29;20048;-87
2022/01/04 00:04:34;;;;;;;39.40;13.63;;;8.00;99.90;;;;;;4854862;29;20045;-86
2022/01/04 00:06:59;;;;;;;40.25;13.10;;;8.00;99.90;;;;;;4840661;29;20110;-87
2022/01/04 00:09:25;;;;;;;40.50;13.50;;;8.00;99.90;;;;;;4836384;29;20402;-86
2022/01/04 00:14:17;;;;;;;39.15;15.13;;;8.00;99.90;;;;;;4836252;29;20118;-87
2022/01/04 00:16:43;;;;;;;46.72;13.70;;;7.90;99.90;;;;;;4836349;29;20441;-86
2022/01/04 00:19:09;;;;;;;44.95;13.57;;;7.90;99.90;;;;;;4836137;29;20050;-87
2022/01/04 00:21:35;;;;;;;39.65;12.55;;;8.00;99.90;;;;;;4824178;29;20052;-87
2022/01/04 00:24:01;;;;;;;43.33;12.85;;;8.00;99.90;;;;;;4838970;29;20688;-87
2022/01/04 00:26:27;;;;;;;43.72;13.35;;;8.00;99.90;;;;;;4839744;29;20061;-87
2022/01/04 00:28:53;;;;;;;38.72;12.50;;;8.10;99.90;;;;;;4823906;29;20098;-87
2022/01/04 00:31:19;;;;;;;40.05;12.13;;;8.10;99.90;;;;;;4839688;29;20509;-86
2022/01/04 00:33:44;;;;;;;38.78;13.15;;;8.00;99.90;;;;;;4839367;29;20038;-87
2022/01/04 00:36:10;;;;;;;40.35;11.93;;;8.00;99.90;;;;;;4824177;29;20050;-86
2022/01/04 00:38:35;;;;;;;48.22;12.35;;;8.00;99.90;;;;;;4823670;29;20049;-87
2022/01/04 00:41:01;;;;;;;42.15;14.60;;;8.10;99.90;;;;;;4839453;29;20098;-86
2022/01/04 00:43:27;;;;;;;37.75;12.02;;;8.10;99.90;;;;;;4824002;29;20513;-86
2022/01/04 00:45:53;;;;;;;33.60;11.35;;;8.20;99.90;;;;;;4838837;29;20474;-87
2022/01/04 00:50:45;;;;;;;34.63;12.60;;;8.20;99.90;;;;;;4839062;29;20058;-87
2022/01/04 00:53:12;;;;;;;37.83;13.80;;;8.20;99.90;;;;;;4838524;29;20148;-86
2022/01/04 00:55:38;;;;;;;42.83;14.05;;;8.20;99.90;;;;;;4839549;29;20075;-86
2022/01/04 00:58:04;;;;;;;43.25;13.88;;;8.20;99.90;;;;;;4838360;29;20038;-86
2022/01/04 01:00:31;;;;;;;48.78;15.07;;;8.20;99.90;;;;;;4839195;29;20046;-87
2022/01/04 01:02:57;;;;;;;39.05;14.55;;;8.20;99.90;;;;;;4839416;29;20056;-86
2022/01/04 01:05:24;;;;;;;33.90;13.32;;;8.20;99.90;;;;;;4823852;29;20046;-86
2022/01/04 01:07:51;;;;;;;37.80;14.60;;;8.40;99.90;;;;;;4822638;29;20066;-87
2022/01/04 01:12:49;;;;;;;40.67;15.45;;;8.40;99.90;;;;;;4840643;29;20225;-86
2022/01/04 01:15:15;;;;;;;36.85;15.35;;;8.40;99.90;;;;;;4838643;29;20158;-86
2022/01/04 01:17:41;;;;;;;46.97;16.13;;;8.30;99.90;;;;;;4838647;29;20928;-86
2022/01/04 01:20:09;;;;;;;41.35;15.63;;;8.30;99.90;;;;;;4838708;29;20137;-87
2022/01/04 01:22:35;;;;;;;40.60;13.32;;;8.30;99.90;;;;;;4822111;29;20109;-86
2022/01/04 01:25:01;;;;;;;38.60;13.80;;;8.30;99.90;;;;;;4838832;29;20050;-87
2022/01/04 01:27:26;;;;;;;46.97;14.10;;;8.30;99.90;;;;;;4838575;29;20045;-86
2022/01/04 01:29:52;;;;;;;39.83;13.60;;;8.10;99.90;;;;;;4834303;29;20053;-87
2022/01/04 01:32:17;;;;;;;37.30;13.75;;;8.20;99.90;;;;;;4837085;29;20588;-86
2022/01/04 01:34:43;;;;;;;40.25;13.07;;;8.30;99.90;;;;;;4822709;29;20054;-87
2022/01/04 01:37:09;;;;;;;48.85;14.32;;;8.20;99.90;;;;;;4837475;29;20471;-86
2022/01/04 01:39:36;;;;;;;49.42;14.73;;;8.20;99.90;;;;;;4838533;29;20053;-87
2022/01/04 01:42:02;;;;;;;44.17;14.85;;;8.10;99.90;;;;;;4837920;29;20088;-87
2022/01/04 01:44:31;;;;;;;43.75;14.85;;;8.00;99.90;;;;;;4837730;29;20061;-87
2022/01/04 01:46:57;;;;;;;40.63;13.70;;;8.00;99.90;;;;;;4822737;29;20530;-86
2022/01/04 01:49:22;;;;;;;47.50;15.30;;;8.00;99.90;;;;;;4838121;29;20129;-86
2022/01/04 01:51:48;;;;;;;38.13;14.38;;;8.00;99.90;;;;;;4822148;29;20038;-87
2022/01/04 01:54:14;;;;;;;39.60;15.00;;;8.10;99.90;;;;;;4838074;29;20125;-86
2022/01/04 01:56:39;;;;;;;43.00;15.85;;;8.00;99.90;;;;;;4837951;29;20149;-86
2022/01/04 01:59:07;;;;;;;43.17;15.43;;;8.00;99.90;;;;;;4838078;29;20050;-86
2022/01/04 02:01:32;;;;;;;43.33;15.27;;;7.90;99.90;;;;;;4822661;29;20141;-87
2022/01/04 02:03:58;;;;;;;52.88;15.65;;;7.90;99.90;;;;;;4837252;29;20129;-85
2022/01/04 02:06:24;;;;;;;55.33;17.08;;;7.90;99.90;;;;;;4822379;29;20128;-86
2022/01/04 02:08:50;;;;;;;46.38;15.20;;;7.90;99.90;;;;;;4822317;29;20128;-86
2022/01/04 02:11:19;;;;;;;46.75;16.50;;;7.80;99.90;;;;;;4837318;29;20576;-86
2022/01/04 02:13:44;;;;;;;44.92;16.48;;;7.80;99.90;;;;;;4837500;29;20042;-86
2022/01/04 02:16:11;;;;;;;43.67;16.10;;;7.90;99.90;;;;;;4822523;29;20433;-86
2022/01/04 02:18:37;;;;;;;51.72;16.75;;;7.80;99.90;;;;;;4837933;29;20501;-86
2022/01/04 02:21:02;;;;;;;47.00;16.13;;;7.80;99.90;;;;;;4836826;29;20091;-87
2022/01/04 02:23:28;;;;;;;47.85;15.68;;;7.70;99.90;;;;;;4837440;29;20101;-87
2022/01/04 02:25:53;;;;;;;48.00;16.27;;;7.70;99.90;;;;;;4837048;29;20046;-87
2022/01/04 02:28:20;;;;;;;51.28;16.35;;;7.70;99.90;;;;;;4837682;29;20125;-87
2022/01/04 02:30:47;;;;;;;45.85;16.55;;;7.70;99.90;;;;;;4822459;29;20547;-86
2022/01/04 02:33:14;;;;;;;48.47;16.83;;;7.70;99.90;;;;;;4822066;29;20045;-86
2022/01/04 02:35:39;;;;;;;41.90;15.30;;;7.70;99.90;;;;;;4821872;29;20045;-87
2022/01/04 02:38:05;;;;;;;38.22;15.95;;;7.70;99.90;;;;;;4837260;29;20046;-86
2022/01/04 02:40:31;;;;;;;54.35;15.98;;;7.80;99.90;;;;;;4837230;29;20174;-86
2022/01/04 02:42:58;;;;;;;46.10;16.58;;;7.80;99.90;;;;;;4836762;29;20190;-87
2022/01/04 02:45:23;;;;;;;46.17;16.75;;;7.80;99.90;;;;;;4837039;29;20053;-87
2022/01/04 02:47:49;;;;;;;51.80;16.95;;;7.80;99.90;;;;;;4836959;29;20046;-86
2022/01/04 02:50:15;;;;;;;44.00;17.00;;;7.80;99.90;;;;;;4836359;29;20042;-86
2022/01/04 02:52:41;;;;;;;43.95;15.55;;;7.80;99.90;;;;;;4836961;29;20422;-86
2022/01/04 02:55:10;;;;;;;48.75;17.60;;;7.70;99.90;;;;;;4821773;29;20132;-86
2022/01/04 02:57:36;;;;;;;44.45;15.98;;;7.70;99.90;;;;;;4837354;29;20404;-87
2022/01/04 03:00:05;;;;;;;45.72;17.48;;;7.70;99.90;;;;;;4836867;29;20050;-86
2022/01/04 03:02:31;;;;;;;54.17;17.95;;;7.70;99.90;;;;;;4837103;29;20042;-86
2022/01/04 03:04:56;;;;;;;60.33;17.73;;;7.70;99.90;;;;;;4836388;29;20059;-87
2022/01/04 03:07:22;;;;;;;44.50;17.88;;;7.60;99.90;;;;;;4828565;29;20038;-86
2022/01/04 03:09:47;;;;;;;51.17;17.60;;;7.60;99.90;;;;;;4809789;29;20084;-86
2022/01/04 03:12:13;;;;;;;56.15;18.42;;;7.70;99.90;;;;;;4836350;29;20149;-86
2022/01/04 03:14:38;;;;;;;48.60;17.58;;;7.60;99.90;;;;;;4836689;29;20049;-87
2022/01/04 03:17:04;;;;;;;58.70;19.52;;;7.70;99.90;;;;;;4836198;29;20052;-86
2022/01/04 03:19:30;;;;;;;60.92;19.55;;;7.70;99.90;;;;;;4836292;29;20092;-86
2022/01/04 03:21:56;;;;;;;52.67;18.50;;;7.70;99.90;;;;;;4836202;29;20082;-86
2022/01/04 03:24:21;;;;;;;58.53;18.25;;;7.70;99.90;;;;;;4836995;29;20085;-87
2022/01/04 03:26:47;;;;;;;48.83;17.52;;;7.70;99.90;;;;;;4820929;29;20049;-86
2022/01/04 03:29:14;;;;;;;62.88;19.85;;;7.70;99.90;;;;;;4822106;29;20516;-86
2022/01/04 03:31:41;;;;;;;52.83;19.02;;;7.70;99.90;;;;;;4820916;29;20050;-86
2022/01/04 03:34:07;;;;;;;52.17;18.92;;;7.70;99.90;;;;;;4821159;29;20046;-86
2022/01/04 03:36:34;;;;;;;59.42;19.20;;;7.70;99.90;;;;;;4821069;29;20138;-87
2022/01/04 03:39:04;;;;;;;45.80;17.42;;;7.70;99.90;;;;;;4836396;29;20089;-86
2022/01/04 03:41:30;;;;;;;48.05;17.52;;;7.80;99.90;;;;;;4820872;29;20042;-86
2022/01/04 03:43:56;;;;;;;52.45;19.55;;;7.90;99.90;;;;;;4820755;29;20070;-87
2022/01/04 03:46:22;;;;;;;58.40;19.80;;;7.90;99.90;;;;;;4821330;29;20038;-86
2022/01/04 03:48:47;;;;;;;49.25;19.38;;;7.90;99.90;;;;;;4835885;29;20562;-87
2022/01/04 03:51:13;;;;;;;54.75;17.92;;;7.90;99.90;;;;;;4835860;29;20075;-87
2022/01/04 03:53:39;;;;;;;56.28;19.02;;;7.90;99.90;;;;;;4836267;29;20076;-86
2022/01/04 03:56:05;;;;;;;58.08;19.80;;;8.00;99.90;;;;;;4823437;29;20676;-86
2022/01/04 03:58:30;;;;;;;59.30;19.95;;;7.90;99.90;;;;;;4839867;29;20046;-86
2022/01/04 04:00:56;;;;;;;55.92;18.80;;;7.90;99.90;;;;;;4838873;29;20057;-86
2022/01/04 04:03:22;;;;;;;53.38;18.92;;;7.90;99.90;;;;;;4840774;29;20049;-85
2022/01/04 04:05:49;;;;;;;52.47;18.90;;;8.00;99.90;;;;;;4842423;29;20125;-86
2022/01/04 04:08:15;;;;;;;51.80;19.30;;;8.10;99.90;;;;;;4840065;29;20050;-85
2022/01/04 04:10:40;;;;;;;49.63;19.13;;;8.10;99.90;;;;;;4824068;29;20049;-85
2022/01/04 04:13:06;;;;;;;56.33;20.75;;;8.00;99.90;;;;;;4839114;29;20457;-86
2022/01/04 04:15:32;;;;;;;54.25;18.95;;;8.00;99.90;;;;;;4839535;29;20413;-86
2022/01/04 04:17:57;;;;;;;50.95;19.33;;;8.00;99.90;;;;;;4837156;29;20119;-86
2022/01/04 04:20:23;;;;;;;56.38;19.45;;;8.00;99.90;;;;;;4839938;29;20046;-86
2022/01/04 04:22:49;;;;;;;57.42;19.65;;;8.00;99.90;;;;;;4839115;29;20140;-86
2022/01/04 04:25:15;;;;;;;62.88;21.02;;;8.10;99.90;;;;;;4839466;29;20030;-86
2022/01/04 04:27:41;;;;;;;55.15;19.02;;;8.10;99.90;;;;;;4823836;29;20420;-85
2022/01/04 04:30:08;;;;;;;52.92;19.35;;;8.00;99.90;;;;;;4839454;29;20056;-86
2022/01/04 04:32:33;;;;;;;53.53;19.60;;;8.10;99.90;;;;;;4838771;29;20417;-86
2022/01/04 04:34:59;;;;;;;58.25;20.95;;;8.00;99.90;;;;;;4838933;29;20045;-86
2022/01/04 04:37:25;;;;;;;53.97;18.83;;;8.10;99.90;;;;;;4823889;29;20100;-86
2022/01/04 04:39:50;;;;;;;58.95;18.63;;;8.10;99.90;;;;;;4838859;29;20178;-87
2022/01/04 04:42:16;;;;;;;52.50;18.52;;;8.20;99.90;;;;;;4823746;29;20050;-86
2022/01/04 04:44:44;;;;;;;53.13;19.60;;;8.20;99.90;;;;;;4838704;29;20065;-86
2022/01/04 04:47:09;;;;;;;51.75;20.55;;;8.20;99.90;;;;;;4838815;29;20490;-86
2022/01/04 04:49:35;;;;;;;51.00;19.23;;;8.20;99.90;;;;;;4839174;29;20053;-86
2022/01/04 04:52:01;;;;;;;52.35;19.77;;;8.20;99.90;;;;;;4838937;29;20047;-86
2022/01/04 04:54:27;;;;;;;56.38;20.35;;;8.20;99.90;;;;;;4838543;29;20108;-86
2022/01/04 04:56:53;;;;;;;56.42;20.52;;;8.20;99.90;;;;;;4823684;29;20118;-87
2022/01/04 04:59:18;;;;;;;61.20;20.23;;;8.20;99.90;;;;;;4839038;29;20500;-86
2022/01/04 05:01:44;;;;;;;59.00;19.92;;;8.20;99.90;;;;;;4823423;29;20488;-87
2022/01/04 05:04:10;;;;;;;47.80;20.10;;;8.20;99.90;;;;;;4823390;29;20485;-87
2022/01/04 05:06:37;;;;;;;48.25;20.02;;;8.20;99.90;;;;;;4823245;29;20182;-86
2022/01/04 05:09:02;;;;;;;50.67;18.25;;;8.20;99.90;;;;;;4823351;29;20129;-87
2022/01/04 05:11:28;;;;;;;50.20;19.25;;;8.20;99.90;;;;;;4838423;29;20126;-86
2022/01/04 05:13:53;;;;;;;51.22;19.80;;;8.20;99.90;;;;;;4837897;29;20081;-86
2022/01/04 05:16:19;;;;;;;52.45;18.33;;;8.20;99.90;;;;;;4823114;29;20480;-86
2022/01/04 05:18:45;;;;;;;47.55;18.70;;;8.10;99.90;;;;;;4823141;29;20050;-86
2022/01/04 05:21:10;;;;;;;46.72;17.65;;;8.10;99.90;;;;;;4823514;29;20458;-86
2022/01/04 05:23:36;;;;;;;51.30;20.13;;;8.20;99.90;;;;;;4823256;29;20053;-86
2022/01/04 05:26:02;;;;;;;50.33;19.23;;;8.20;99.90;;;;;;4837787;29;20050;-86
2022/01/04 05:28:28;;;;;;;48.38;18.38;;;8.20;99.90;;;;;;4822420;29;20509;-87
2022/01/04 05:30:54;;;;;;;47.90;19.67;;;8.20;99.90;;;;;;4837903;29;20081;-86
2022/01/04 05:33:19;;;;;;;58.10;20.60;;;8.10;99.90;;;;;;4837899;29;20060;-87
2022/01/04 05:35:47;;;;;;;49.30;19.42;;;8.20;99.90;;;;;;4822838;29;20053;-86
2022/01/04 05:38:13;;;;;;;49.13;19.92;;;8.20;99.90;;;;;;4822750;29;20050;-87
2022/01/04 05:40:38;;;;;;;53.47;19.48;;;8.10;99.90;;;;;;4823446;29;20398;-87
2022/01/04 05:43:04;;;;;;;53.63;20.73;;;8.10;99.90;;;;;;4823972;29;20058;-87
2022/01/04 05:45:30;;;;;;;50.65;19.25;;;8.10;99.90;;;;;;4825745;29;20049;-86
2022/01/04 05:47:56;;;;;;;56.92;19.92;;;8.20;99.90;;;;;;4840835;29;20132;-86
2022/01/04 05:50:22;;;;;;;54.03;19.50;;;8.10;99.90;;;;;;4826077;29;20132;-86
2022/01/04 05:52:47;;;;;;;66.45;21.42;;;8.20;99.90;;;;;;4841297;29;20045;-87
2022/01/04 05:55:13;;;;;;;50.80;19.60;;;8.10;99.90;;;;;;4845976;29;20052;-87
2022/01/04 05:57:38;;;;;;;57.80;20.52;;;8.10;99.90;;;;;;4845176;29;20057;-87
2022/01/04 06:00:06;;;;;;;57.38;20.38;;;8.10;99.90;;;;;;4840155;29;20044;-87
2022/01/04 06:02:31;;;;;;;52.28;20.08;;;8.10;99.90;;;;;;4840104;29;20090;-87
2022/01/04 06:04:57;;;;;;;54.60;20.33;;;8.10;99.90;;;;;;4824774;29;20144;-87
2022/01/04 06:07:22;;;;;;;56.38;21.25;;;8.00;99.90;;;;;;4840683;29;20053;-87
2022/01/04 06:09:49;;;;;;;54.85;21.02;;;8.10;99.90;;;;;;4847426;29;20045;-87
2022/01/04 06:14:58;;;;;;;57.47;21.77;;;8.20;99.90;;;;;;4840786;29;20128;-87
2022/01/04 06:17:28;;;;;;;53.60;22.02;;;8.20;99.90;;;;;;4840769;29;20048;-87
2022/01/04 06:19:55;;;;;;;55.17;21.30;;;8.20;99.90;;;;;;4825152;29;20041;-87
2022/01/04 06:22:22;;;;;;;49.55;21.50;;;8.10;99.90;;;;;;4840825;29;20078;-88
2022/01/04 06:24:47;;;;;;;49.88;19.85;;;8.10;99.90;;;;;;4840651;29;20057;-87
2022/01/04 06:27:13;;;;;;;56.20;21.55;;;8.20;99.90;;;;;;4840455;29;20045;-86
2022/01/04 06:29:40;;;;;;;46.97;21.15;;;8.10;99.90;;;;;;4839773;29;20089;-87
2022/01/04 06:32:07;;;;;;;52.90;22.60;;;8.10;99.90;;;;;;4825032;29;20531;-87
2022/01/04 06:34:34;;;;;;;50.55;21.75;;;8.10;99.90;;;;;;4825006;29;20045;-86
2022/01/04 06:36:59;;;;;;;63.42;23.08;;;8.10;99.90;;;;;;4840402;29;20473;-87
2022/01/04 06:39:25;;;;;;;58.58;22.38;;;8.10;99.90;;;;;;4839052;29;20090;-86
2022/01/04 06:41:51;;;;;;;61.97;21.73;;;8.00;99.90;;;;;;4818965;29;20446;-85
2022/01/04 06:44:17;;;;;;;67.10;24.15;;;8.00;99.90;;;;;;4853234;29;20101;-85
2022/01/04 06:46:45;;;;;;;62.03;23.95;;;8.00;99.90;;;;;;4836388;29;20118;-85
2022/01/04 06:49:12;;;;;;;64.85;24.30;;;8.00;99.90;;;;;;4833401;29;20510;-85
2022/01/04 06:51:39;;;;;;;51.97;24.08;;;8.00;99.90;;;;;;4837409;29;20496;-86
2022/01/04 06:54:06;;;;;;;59.25;24.88;;;8.10;99.90;;;;;;4824267;29;20396;-86
2022/01/04 06:56:31;;;;;;;58.42;24.20;;;8.10;99.90;;;;;;4824552;29;20105;-86
2022/01/04 06:58:57;;;;;;;60.58;23.75;;;8.00;99.90;;;;;;4837477;29;20048;-84
2022/01/04 07:01:22;;;;;;;70.53;26.25;;;8.00;99.90;;;;;;4830934;29;20045;-86
2022/01/04 07:03:48;;;;;;;61.58;26.27;;;8.00;99.90;;;;;;4836715;29;20062;-86
2022/01/04 07:06:13;;;;;;;67.00;26.55;;;8.00;99.90;;;;;;4851728;29;20041;-85
2022/01/04 07:08:39;;;;;;;62.85;25.27;;;8.00;99.90;;;;;;4840242;29;20053;-86
2022/01/04 07:11:05;;;;;;;71.90;27.13;;;8.00;99.90;;;;;;4838933;29;20049;-85
2022/01/04 07:13:31;;;;;;;69.07;24.88;;;8.10;99.90;;;;;;4852259;29;20049;-85
2022/01/04 07:15:56;;;;;;;62.08;25.52;;;8.10;99.90;;;;;;4838885;29;20137;-85
2022/01/04 07:18:22;;;;;;;74.45;27.38;;;8.10;99.90;;;;;;4853965;29;20105;-85
2022/01/04 07:20:48;;;;;;;62.30;23.92;;;8.10;99.90;;;;;;4823921;29;20045;-85
2022/01/04 07:23:13;;;;;;;48.30;21.42;;;8.10;99.90;;;;;;4852617;29;20576;-86
2022/01/04 07:25:39;;;;;;;54.33;21.73;;;8.20;99.90;;;;;;4837448;29;20049;-85
2022/01/04 07:28:05;;;;;;;50.47;21.83;;;8.20;99.90;;;;;;4838436;29;20068;-86
2022/01/04 07:30:30;;;;;;;54.55;22.55;;;8.20;99.90;;;;;;4835703;29;20038;-85
2022/01/04 07:32:56;;;;;;;60.25;23.40;;;8.10;99.90;;;;;;4820632;29;20125;-85
2022/01/04 07:35:22;;;;;;;62.78;24.80;;;8.10;99.90;;;;;;4853769;29;20088;-85
2022/01/04 07:37:48;;;;;;;51.75;22.33;;;8.20;99.90;;;;;;4838871;29;20045;-86
2022/01/04 07:40:13;;;;;;;72.78;26.13;;;8.20;99.90;;;;;;4855179;29;20129;-85
2022/01/04 07:42:39;;;;;;;65.07;26.08;;;8.10;99.90;;;;;;4839676;29;20496;-85
2022/01/04 07:45:05;;;;;;;68.50;26.40;;;8.10;99.90;;;;;;4855149;29;20073;-86
2022/01/04 07:47:31;;;;;;;64.13;25.92;;;8.10;99.90;;;;;;4840071;29;20073;-85
2022/01/04 07:49:57;;;;;;;54.97;25.20;;;8.10;99.90;;;;;;4839527;29;20564;-86
2022/01/04 07:52:22;;;;;;;59.78;24.90;;;8.10;99.90;;;;;;4839548;29;20105;-86
2022/01/04 07:54:48;;;;;;;63.65;25.52;;;8.20;99.90;;;;;;4838995;29;20049;-86
2022/01/04 07:57:13;;;;;;;65.13;25.45;;;8.20;99.90;;;;;;4825049;29;20611;-86
2022/01/04 07:59:39;;;;;;;67.60;25.48;;;8.30;99.90;;;;;;4838906;29;20101;-86
2022/01/04 08:02:05;;;;;;;63.08;24.92;;;8.20;99.90;;;;;;4850343;29;20045;-84
2022/01/04 08:04:31;;;;;;;57.40;24.85;;;8.10;99.90;;;;;;4865410;29;20061;-86
2022/01/04 08:06:56;;;;;;;59.70;24.85;;;8.10;99.90;;;;;;4839298;29;20394;-86
2022/01/04 08:09:22;;;;;;;62.67;25.20;;;8.10;99.90;;;;;;4839327;29;20045;-86
2022/01/04 08:11:47;;;;;;;63.47;27.98;;;8.10;99.90;;;;;;4821136;29;20116;-86
2022/01/04 08:14:14;;;;;;;64.78;26.23;;;8.00;99.90;;;;;;4840712;29;20045;-86
2022/01/04 08:16:39;;;;;;;61.83;25.15;;;8.00;99.90;;;;;;4839859;29;20049;-86
2022/01/04 08:19:05;;;;;;;58.67;25.27;;;8.00;99.90;;;;;;4824067;29;20056;-86
2022/01/04 08:21:31;;;;;;;57.15;25.08;;;8.00;99.90;;;;;;4839400;29;20044;-86
2022/01/04 08:23:56;;;;;;;59.30;25.40;;;8.10;99.90;;;;;;4839260;29;20060;-86
2022/01/04 08:26:23;;;;;;;68.53;26.27;;;8.10;99.90;;;;;;4855840;29;20050;-85
2022/01/04 08:28:49;;;;;;;72.80;26.77;;;8.00;99.90;;;;;;4854807;29;20193;-85
2022/01/04 08:31:14;;;;;;;64.35;25.83;;;8.00;99.90;;;;;;4824086;29;20074;-86
2022/01/04 08:33:41;;;;;;;63.05;26.17;;;8.10;99.90;;;;;;4854385;29;20053;-86
2022/01/04 08:36:10;;;;;;;63.80;26.75;;;8.10;99.90;;;;;;4853080;29;20053;-86
2022/01/04 08:38:36;;;;;;;69.05;26.27;;;8.00;99.90;;;;;;4852013;29;20730;-86
2022/01/04 08:41:02;;;;;;;60.95;27.17;;;8.10;99.90;;;;;;4858685;29;20136;-86
2022/01/04 08:43:28;;;;;;;64.22;26.48;;;8.00;99.90;;;;;;4858300;29;20049;-86
2022/01/04 08:45:53;;;;;;;60.92;25.63;;;8.00;99.90;;;;;;4850451;29;20053;-86
2022/01/04 08:48:19;;;;;;;64.18;26.05;;;8.10;99.90;;;;;;4842662;29;20081;-86
2022/01/04 08:50:45;;;;;;;74.07;26.98;;;8.10;99.90;;;;;;4842474;29;20483;-86
2022/01/04 08:53:12;;;;;;;71.13;26.77;;;8.10;99.90;;;;;;4841985;29;20523;-86
2022/01/04 08:55:38;;;;;;;65.68;26.63;;;8.10;99.90;;;;;;4842363;29;20045;-86
2022/01/04 08:58:05;;;;;;;41.50;18.00;;;8.10;99.90;;;;;;4842482;29;20037;-86
2022/01/04 09:00:31;;;;;;;40.88;16.30;;;8.10;99.90;;;;;;4858759;29;20056;-85
2022/01/04 09:02:56;;;;;;;26.25;10.65;;;8.00;99.90;;;;;;4841912;29;20053;-85
2022/01/04 09:05:22;;;;;;;28.95;11.93;;;7.90;99.90;;;;;;4842133;29;20045;-85
2022/01/04 09:07:48;;;;;;;25.63;7.03;;;7.90;99.90;;;;;;4825925;29;20050;-85
2022/01/04 09:10:13;;;;;;;32.45;8.65;;;7.80;99.90;;;;;;4841937;29;20045;-84
2022/01/04 09:12:52;;;;;;;32.47;8.68;;;7.70;99.90;;;;;;4862236;29;20045;-85
2022/01/04 09:20:49;;;;;;;20.00;7.18;;;7.60;99.90;;;;;;4822610;29;20062;-84
2022/01/04 09:23:18;;;;;;;38.90;8.55;;;7.60;99.90;;;;;;4828023;29;20050;-84
2022/01/04 09:25:45;;;;;;;29.55;8.35;;;7.50;99.90;;;;;;4853716;29;20054;-84
2022/01/04 09:28:11;;;;;;;31.30;10.00;;;7.60;99.90;;;;;;4826815;29;20053;-84
2022/01/04 09:30:39;;;;;;;33.08;11.73;;;7.70;99.90;;;;;;4845732;29;20045;-84
2022/01/04 09:33:05;;;;;;;30.23;11.25;;;7.70;99.90;;;;;;4854630;29;20045;-84
2022/01/04 09:35:32;;;;;;;31.98;12.27;;;7.80;99.90;;;;;;4846429;29;20496;-85
2022/01/04 09:37:58;;;;;;;43.55;14.63;;;7.80;99.90;;;;;;4853026;29;20727;-85
2022/01/04 09:40:24;;;;;;;42.55;16.20;;;7.90;99.90;;;;;;4849761;29;20124;-85
2022/01/04 09:42:50;;;;;;;42.20;15.45;;;7.80;99.90;;;;;;4834551;29;20036;-86
2022/01/04 09:45:16;;;;;;;39.65;16.02;;;8.00;99.90;;;;;;4850095;29;20416;-86
2022/01/04 09:47:41;;;;;;;39.80;15.57;;;7.90;99.90;;;;;;4848822;29;20050;-85
2022/01/04 09:50:10;;;;;;;49.75;15.90;;;8.00;99.90;;;;;;4840592;29;20041;-86
2022/01/04 09:52:42;;;;;;;48.13;15.90;;;8.00;99.90;;;;;;4824638;29;20053;-86
2022/01/04 09:55:10;;;;;;;44.65;16.15;;;8.00;99.90;;;;;;4825488;29;20041;-86
2022/01/04 09:57:36;;;;;;;42.67;14.88;;;8.00;99.90;;;;;;4828266;29;20055;-85
2022/01/04 10:00:03;;;;;;;40.72;13.70;;;8.00;99.90;;;;;;4828528;29;20116;-86
2022/01/04 10:02:30;;;;;;;33.88;13.02;;;8.00;99.90;;;;;;4844532;29;20181;-85
2022/01/04 10:05:18;;;;;;;35.58;12.70;;;7.90;99.90;;;;;;4854874;29;20060;-85
2022/01/04 10:07:45;;;;;;;36.67;12.23;;;7.90;99.90;;;;;;4841763;29;20041;-85
2022/01/04 10:10:12;;;;;;;38.13;11.73;;;7.80;99.90;;;;;;4840583;29;20053;-86
2022/01/04 10:12:56;;;;;;;28.38;9.85;;;7.80;99.90;;;;;;4850020;29;20061;-86
2022/01/04 10:15:35;;;;;;;35.40;10.98;;;7.70;99.90;;;;;;4825102;29;20501;-85
2022/01/04 10:18:23;;;;;;;25.05;9.50;;;7.70;99.90;;;;;;4840088;29;20547;-85
2022/01/04 10:20:58;;;;;;;15.82;6.75;;;7.60;99.90;;;;;;4825091;29;20051;-86
2022/01/04 10:23:25;;;;;;;17.25;6.20;;;7.40;99.90;;;;;;4840999;29;20057;-85
2022/01/04 10:26:00;;;;;;;24.50;6.63;;;7.30;99.90;;;;;;4849694;29;20041;-85
2022/01/04 10:28:37;;;;;;;18.08;5.63;;;7.20;99.90;;;;;;4854985;29;20049;-85
2022/01/04 10:31:12;;;;;;;25.17;5.47;;;7.20;99.90;;;;;;4858709;29;20041;-85
2022/01/04 10:33:38;;;;;;;11.25;3.83;;;7.10;99.90;;;;;;4839606;29;20066;-86
2022/01/04 10:36:11;;;;;;;13.73;3.60;;;6.90;99.90;;;;;;4825623;29;20130;-86
2022/01/04 10:38:40;;;;;;;10.13;3.50;;;6.90;99.90;;;;;;4840449;29;20053;-86
2022/01/04 10:41:17;;;;;;;11.10;3.22;;;6.80;99.90;;;;;;4835986;29;20132;-86
2022/01/04 10:43:50;;;;;;;8.52;2.88;;;6.80;99.90;;;;;;4839556;29;20145;-85
2022/01/04 10:46:18;;;;;;;13.13;2.97;;;6.80;99.90;;;;;;4824280;29;20081;-86
2022/01/04 10:48:46;;;;;;;7.45;2.22;;;6.80;99.90;;;;;;4823921;29;20059;-86
2022/01/04 10:51:17;;;;;;;5.57;2.08;;;6.70;99.90;;;;;;4842580;29;20125;-85
2022/01/04 10:53:54;;;;;;;5.47;2.10;;;6.70;99.90;;;;;;4833605;29;20052;-86
2022/01/04 10:56:26;;;;;;;8.82;2.05;;;6.70;99.90;;;;;;4839484;29;20042;-86
2022/01/04 10:58:53;;;;;;;6.45;2.20;;;6.60;99.90;;;;;;4836007;29;20449;-86
2022/01/04 11:01:21;;;;;;;12.40;2.30;;;6.50;99.90;;;;;;4857260;29;20130;-86
2022/01/04 11:03:53;;;;;;;6.45;1.95;;;6.60;99.90;;;;;;4841330;29;20108;-86
2022/01/04 11:06:30;;;;;;;9.48;2.22;;;6.50;99.90;;;;;;4848709;29;20508;-86
2022/01/04 11:08:56;;;;;;;5.75;2.50;;;6.50;99.90;;;;;;4834134;29;20049;-86
2022/01/04 11:11:22;;;;;;;11.20;2.95;;;6.50;99.90;;;;;;4839741;29;20049;-87
2022/01/04 11:13:51;;;;;;;9.68;2.28;;;6.40;99.90;;;;;;4827130;29;20136;-86
2022/01/04 11:16:19;;;;;;;7.10;2.40;;;6.30;99.90;;;;;;4849040;29;20088;-86
2022/01/04 11:18:49;;;;;;;7.40;2.35;;;6.30;99.90;;;;;;4823275;29;20045;-86
2022/01/04 11:21:15;;;;;;;10.30;2.20;;;6.30;99.90;;;;;;4840316;29;20042;-87
2022/01/04 11:23:42;;;;;;;9.00;2.50;;;6.30;99.90;;;;;;4825352;29;20475;-86
2022/01/04 11:26:10;;;;;;;7.93;2.53;;;6.30;99.90;;;;;;4845964;29;20077;-86
2022/01/04 11:28:42;;;;;;;7.20;2.03;;;6.30;99.90;;;;;;4824566;29;20037;-86
2022/01/04 11:31:37;;;;;;;4.60;1.67;;;6.20;99.90;;;;;;4838949;29;20110;-87
2022/01/04 11:34:06;;;;;;;4.65;1.20;;;6.00;99.90;;;;;;4827739;29;20064;-87
2022/01/04 11:36:37;;;;;;;3.75;0.95;;;5.80;99.90;;;;;;4839744;29;20121;-87
2022/01/04 11:39:37;;;;;;;12.70;6.85;;;5.80;99.90;;;;;;4842194;29;20066;-86
2022/01/04 11:42:09;;;;;;;5.97;1.80;;;5.70;99.90;;;;;;4838609;29;20050;-87
2022/01/04 11:44:45;;;;;;;8.27;2.08;;;5.70;99.90;;;;;;4788628;29;1068418;-87
2022/01/04 11:47:15;;;;;;;5.25;1.30;;;5.80;99.90;;;;;;4839373;29;20054;-86
2022/01/04 11:50:05;;;;;;;11.20;2.85;;;5.80;99.90;;;;;;4824737;29;20050;-86
2022/01/04 11:52:41;;;;;;;5.00;2.80;;;5.80;99.90;;;;;;4825135;29;20046;-86
2022/01/04 11:55:23;;;;;;;8.65;3.42;;;5.80;99.90;;;;;;4823619;29;20637;-87
2022/01/04 11:57:58;;;;;;;11.68;4.70;;;5.80;99.90;;;;;;4820305;29;20088;-87
2022/01/04 12:00:30;;;;;;;11.73;2.10;;;5.90;99.90;;;;;;4838284;29;20084;-86
2022/01/04 12:03:13;;;;;;;8.98;2.70;;;5.90;99.90;;;;;;4839757;29;20481;-86
2022/01/04 12:05:57;;;;;;;3.43;1.57;;;5.90;99.90;;;;;;4842192;29;20058;-86
2022/01/04 12:08:24;;;;;;;11.98;3.92;;;5.80;99.90;;;;;;4824629;29;20042;-86
2022/01/04 12:10:52;;;;;;;40.42;23.45;;;5.70;99.90;;;;;;4824116;29;20053;-86
2022/01/04 12:13:22;;;;;;;28.48;17.95;;;5.70;99.90;;;;;;4820212;29;20049;-86
2022/01/04 12:15:52;;;;;;;209.55;125.75;;;5.70;99.90;;;;;;4837870;29;20052;-85
2022/01/04 12:18:24;;;;;;;52.65;23.60;;;5.60;99.90;;;;;;4840456;29;20094;-84
2022/01/04 12:20:52;;;;;;;12.80;4.13;;;5.40;99.90;;;;;;4855737;29;20393;-86
2022/01/04 12:23:26;;;;;;;6.40;2.05;;;5.30;99.90;;;;;;4827744;29;20421;-86
2022/01/04 12:26:13;;;;;;;25.30;9.13;;;5.20;99.90;;;;;;4842663;29;20109;-86
2022/01/04 12:28:45;;;;;;;16.83;6.63;;;5.10;99.90;;;;;;4843247;29;20517;-86
2022/01/04 12:31:16;;;;;;;8.32;2.08;;;5.20;99.90;;;;;;4842525;29;20086;-87
2022/01/04 12:33:53;;;;;;;9.98;3.20;;;5.20;99.90;;;;;;4848590;29;20708;-86
2022/01/04 12:36:34;;;;;;;311.40;92.47;;;5.30;99.90;;;;;;4845834;29;20037;-87
2022/01/04 12:39:06;;;;;;;16.55;6.65;;;5.30;99.90;;;;;;4842644;29;20093;-87
2022/01/04 12:41:35;;;;;;;8.80;2.55;;;5.30;99.90;;;;;;4843708;29;20045;-86
2022/01/04 12:44:01;;;;;;;11.60;2.15;;;5.40;99.90;;;;;;4842102;29;20066;-86
2022/01/04 12:46:34;;;;;;;5.60;1.83;;;5.40;99.90;;;;;;4842349;29;20548;-86
2022/01/04 12:49:03;;;;;;;7.18;2.60;;;5.40;99.90;;;;;;4842504;29;20051;-86
2022/01/04 12:51:36;;;;;;;7.70;3.55;;;5.30;99.90;;;;;;4835268;29;20054;-86
2022/01/04 12:54:09;;;;;;;9.15;4.47;;;5.40;99.90;;;;;;4852361;29;20045;-86
2022/01/04 12:56:47;;;;;;;10.50;2.50;;;5.50;99.90;;;;;;4844209;29;20552;-86
2022/01/04 12:59:25;;;;;;;20.05;9.32;;;5.50;99.90;;;;;;4846822;29;20477;-86